Time,TemperatureF,DewpointF,PressureIn,WindDirection,WindDirectionDegrees,WindSpeedMPH,WindSpeedGustMPH,Humidity,HourlyPrecipIn,Conditions,Clouds,dailyrainin,SolarRadiationWatts/m^2,SoftwareType,DateUTC
2013-01-11 00:02:00,68.0,54.0,-100.00,East,94,16.0,26.0,60,0.00,,,0.00,1.000000,,2013-01-11 10:02:00,
2013-01-11 00:12:00,68.0,54.0,-100.00,East,94,16.0,26.0,60,0.00,,,0.00,1.000000,,2013-01-11 10:12:00,
2013-01-11 00:22:00,68.0,54.0,-100.00,East,94,16.0,26.0,60,0.00,,,0.00,1.000000,,2013-01-11 10:22:00,
2013-01-11 00:32:00,68.0,54.0,-100.00,East,94,16.0,26.0,60,0.00,,,0.00,1.000000,,2013-01-11 10:32:00,
2013-01-11 00:52:00,68.0,58.0,-100.00,ENE,72,25.0,34.0,70,0.00,,,0.00,1.000000,,2013-01-11 10:52:00,
2013-01-11 01:02:00,68.0,58.0,-100.00,ENE,72,25.0,34.0,70,0.00,,,0.00,1.000000,,2013-01-11 11:02:00,
2013-01-11 01:12:00,68.0,58.0,-100.00,ENE,72,25.0,34.0,70,0.00,,,0.00,1.000000,,2013-01-11 11:12:00,
2013-01-11 01:22:00,68.0,58.0,-100.00,ENE,72,25.0,34.0,70,0.00,,,0.00,1.000000,,2013-01-11 11:22:00,
2013-01-11 01:32:00,68.0,58.0,-100.00,ENE,72,25.0,34.0,70,0.00,,,0.00,1.000000,,2013-01-11 11:32:00,
2013-01-11 01:53:00,68.0,58.0,-100.00,ENE,69,26.0,34.0,70,0.00,,,0.00,1.000000,,2013-01-11 11:53:00,
2013-01-11 02:02:00,68.0,58.0,-100.00,ENE,69,26.0,34.0,70,0.00,,,0.00,1.000000,,2013-01-11 12:02:00,
2013-01-11 02:12:00,68.0,58.0,-100.00,ENE,69,26.0,34.0,70,0.00,,,0.00,1.000000,,2013-01-11 12:12:00,
2013-01-11 02:22:00,68.0,58.0,-100.00,ENE,69,26.0,34.0,70,0.00,,,0.00,1.000000,,2013-01-11 12:22:00,
2013-01-11 02:32:00,68.0,58.0,-100.00,ENE,69,26.0,34.0,70,0.00,,,0.00,1.000000,,2013-01-11 12:32:00,
2013-01-11 02:53:00,67.0,57.0,-100.00,East,82,17.0,32.0,70,0.00,,,-99.99,1.000000,,2013-01-11 12:53:00,
2013-01-11 03:02:00,67.0,57.0,-100.00,East,82,17.0,32.0,70,0.00,,,-99.99,1.000000,,2013-01-11 13:02:00,
2013-01-11 03:12:00,67.0,57.0,-100.00,East,82,17.0,32.0,70,0.00,,,-99.99,1.000000,,2013-01-11 13:12:00,
2013-01-11 03:22:00,67.0,57.0,-100.00,East,82,17.0,32.0,70,0.00,,,-99.99,1.000000,,2013-01-11 13:22:00,
2013-01-11 03:32:00,67.0,57.0,-100.00,East,82,17.0,32.0,70,0.00,,,-99.99,1.000000,,2013-01-11 13:32:00,
2013-01-11 04:03:00,67.0,58.0,-100.00,East,83,18.0,27.0,73,0.00,,,-99.99,1.000000,,2013-01-11 14:03:00,
2013-01-11 04:12:00,67.0,58.0,-100.00,East,83,18.0,27.0,73,0.00,,,-99.99,1.000000,,2013-01-11 14:12:00,
2013-01-11 04:22:00,67.0,58.0,-100.00,East,83,18.0,27.0,73,0.00,,,-99.99,1.000000,,2013-01-11 14:22:00,
2013-01-11 04:33:00,67.0,58.0,-100.00,East,83,18.0,27.0,73,0.00,,,-99.99,1.000000,,2013-01-11 14:33:00,
2013-01-11 05:03:00,67.0,56.0,-100.00,ESE,102,16.0,31.0,69,0.00,,,0.00,1.000000,,2013-01-11 15:03:00,
2013-01-11 05:12:00,67.0,56.0,-100.00,ESE,102,16.0,31.0,69,0.00,,,0.00,1.000000,,2013-01-11 15:12:00,
2013-01-11 05:22:00,67.0,56.0,-100.00,ESE,102,16.0,31.0,69,0.00,,,0.00,1.000000,,2013-01-11 15:22:00,
2013-01-11 05:32:00,67.0,56.0,-100.00,ESE,102,16.0,31.0,69,0.00,,,0.00,1.000000,,2013-01-11 15:32:00,
2013-01-11 05:53:00,67.0,54.0,-100.00,ENE,77,12.0,22.0,64,0.00,,,0.00,1.000000,,2013-01-11 15:53:00,
2013-01-11 06:02:00,67.0,54.0,-100.00,ENE,77,12.0,22.0,64,0.00,,,0.00,1.000000,,2013-01-11 16:02:00,
2013-01-11 06:12:00,67.0,54.0,-100.00,ENE,77,12.0,22.0,64,0.00,,,0.00,1.000000,,2013-01-11 16:12:00,
2013-01-11 06:22:00,67.0,54.0,-100.00,ENE,77,12.0,22.0,64,0.00,,,0.00,1.000000,,2013-01-11 16:22:00,
2013-01-11 06:32:00,67.0,54.0,-100.00,ENE,77,12.0,22.0,64,0.00,,,0.00,1.000000,,2013-01-11 16:32:00,
2013-01-11 07:03:00,62.0,44.0,-100.00,SE,133,8.0,24.0,51,0.00,,,0.00,1.000000,,2013-01-11 17:03:00,
2013-01-11 07:12:00,62.0,44.0,-100.00,SE,133,8.0,24.0,51,0.00,,,0.00,1.000000,,2013-01-11 17:12:00,
2013-01-11 07:22:00,62.0,44.0,-100.00,SE,133,8.0,24.0,51,0.00,,,0.00,1.000000,,2013-01-11 17:22:00,
2013-01-11 07:33:00,62.0,44.0,-100.00,SE,133,8.0,24.0,51,0.00,,,0.00,1.000000,,2013-01-11 17:33:00,
2013-01-11 08:03:00,64.0,52.0,-100.00,ENE,73,10.0,15.0,64,0.00,,,0.00,8.000000,,2013-01-11 18:03:00,
2013-01-11 08:12:00,64.0,52.0,-100.00,ENE,73,10.0,15.0,64,0.00,,,0.00,8.000000,,2013-01-11 18:12:00,
2013-01-11 08:23:00,64.0,52.0,-100.00,ENE,73,10.0,15.0,64,0.00,,,0.00,8.000000,,2013-01-11 18:23:00,
2013-01-11 08:32:00,64.0,52.0,-100.00,ENE,73,10.0,15.0,64,0.00,,,0.00,8.000000,,2013-01-11 18:32:00,
2013-01-11 09:02:00,72.0,48.0,-100.00,ENE,65,12.0,17.0,43,0.00,,,0.00,187.000000,,2013-01-11 19:02:00,
2013-01-11 09:12:00,72.0,48.0,-100.00,ENE,65,12.0,17.0,43,0.00,,,0.00,187.000000,,2013-01-11 19:12:00,
2013-01-11 09:22:00,72.0,48.0,-100.00,ENE,65,12.0,17.0,43,0.00,,,0.00,187.000000,,2013-01-11 19:22:00,
2013-01-11 09:32:00,72.0,48.0,-100.00,ENE,65,12.0,17.0,43,0.00,,,0.00,187.000000,,2013-01-11 19:32:00,
2013-01-11 09:53:00,75.0,60.0,-100.00,ENE,60,13.0,21.0,60,0.00,,,0.00,408.000000,,2013-01-11 19:53:00,
2013-01-11 10:02:00,75.0,60.0,-100.00,ENE,60,13.0,21.0,60,0.00,,,0.00,408.000000,,2013-01-11 20:02:00,
2013-01-11 10:12:00,75.0,60.0,-100.00,ENE,60,13.0,21.0,60,0.00,,,0.00,408.000000,,2013-01-11 20:12:00,
2013-01-11 10:22:00,75.0,60.0,-100.00,ENE,60,13.0,21.0,60,0.00,,,0.00,408.000000,,2013-01-11 20:22:00,
2013-01-11 10:32:00,75.0,60.0,-100.00,ENE,60,13.0,21.0,60,0.00,,,0.00,408.000000,,2013-01-11 20:32:00,
2013-01-11 11:03:00,76.0,60.0,-100.00,North,356,6.0,21.0,57,0.00,,,0.00,587.000000,,2013-01-11 21:03:00,
2013-01-11 11:12:00,76.0,60.0,-100.00,North,356,6.0,21.0,57,0.00,,,0.00,587.000000,,2013-01-11 21:12:00,
2013-01-11 11:22:00,76.0,60.0,-100.00,North,356,6.0,21.0,57,0.00,,,0.00,587.000000,,2013-01-11 21:22:00,
2013-01-11 11:32:00,76.0,60.0,-100.00,North,356,6.0,21.0,57,0.00,,,0.00,587.000000,,2013-01-11 21:32:00,
2013-01-11 12:02:00,78.0,62.0,-100.00,NW,312,6.0,14.0,59,0.00,,,0.00,708.000000,,2013-01-11 22:02:00,
2013-01-11 12:12:00,78.0,62.0,-100.00,NW,312,6.0,14.0,59,0.00,,,0.00,708.000000,,2013-01-11 22:12:00,
2013-01-11 12:22:00,78.0,62.0,-100.00,NW,312,6.0,14.0,59,0.00,,,0.00,708.000000,,2013-01-11 22:22:00,
2013-01-11 12:32:00,78.0,62.0,-100.00,NW,312,6.0,14.0,59,0.00,,,0.00,708.000000,,2013-01-11 22:32:00,
2013-01-11 12:53:00,80.0,61.0,-100.00,NW,324,6.0,11.0,52,0.00,,,0.00,711.000000,,2013-01-11 22:53:00,
2013-01-11 13:02:00,80.0,61.0,-100.00,NW,324,6.0,11.0,52,0.00,,,0.00,711.000000,,2013-01-11 23:02:00,
2013-01-11 13:12:00,80.0,61.0,-100.00,NW,324,6.0,11.0,52,0.00,,,0.00,711.000000,,2013-01-11 23:12:00,
2013-01-11 13:22:00,80.0,61.0,-100.00,NW,324,6.0,11.0,52,0.00,,,0.00,711.000000,,2013-01-11 23:22:00,
2013-01-11 13:32:00,80.0,61.0,-100.00,NW,324,6.0,11.0,52,0.00,,,0.00,711.000000,,2013-01-11 23:32:00,
2013-01-11 14:02:00,80.0,59.0,-100.00,WNW,287,8.0,15.0,49,0.00,,,0.00,760.000000,,2013-01-12 00:02:00,
2013-01-11 14:12:00,80.0,59.0,-100.00,WNW,287,8.0,15.0,49,0.00,,,0.00,760.000000,,2013-01-12 00:12:00,
2013-01-11 14:22:00,80.0,59.0,-100.00,WNW,287,8.0,15.0,49,0.00,,,0.00,760.000000,,2013-01-12 00:22:00,
2013-01-11 14:32:00,80.0,59.0,-100.00,WNW,287,8.0,15.0,49,0.00,,,0.00,760.000000,,2013-01-12 00:32:00,
2013-01-11 14:53:00,78.0,58.0,-100.00,NNW,332,5.0,15.0,50,0.00,,,0.00,442.000000,,2013-01-12 00:53:00,
2013-01-11 15:02:00,78.0,58.0,-100.00,NNW,332,5.0,15.0,50,0.00,,,0.00,442.000000,,2013-01-12 01:02:00,
2013-01-11 15:12:00,78.0,58.0,-100.00,NNW,332,5.0,15.0,50,0.00,,,0.00,442.000000,,2013-01-12 01:12:00,
2013-01-11 15:22:00,78.0,58.0,-100.00,NNW,332,5.0,15.0,50,0.00,,,0.00,442.000000,,2013-01-12 01:22:00,
2013-01-11 15:32:00,78.0,58.0,-100.00,NNW,332,5.0,15.0,50,0.00,,,0.00,442.000000,,2013-01-12 01:32:00,
2013-01-11 16:02:00,74.0,62.0,-100.00,SE,132,7.0,13.0,66,0.00,,,0.00,188.000000,,2013-01-12 02:02:00,
2013-01-11 16:12:00,74.0,62.0,-100.00,SE,132,7.0,13.0,66,0.00,,,0.00,188.000000,,2013-01-12 02:12:00,
2013-01-11 16:22:00,74.0,62.0,-100.00,SE,132,7.0,13.0,66,0.00,,,0.00,188.000000,,2013-01-12 02:22:00,
2013-01-11 16:32:00,74.0,62.0,-100.00,SE,132,7.0,13.0,66,0.00,,,0.00,188.000000,,2013-01-12 02:32:00,
2013-01-11 16:53:00,75.0,63.0,-100.00,SE,126,8.0,11.0,66,0.00,,,0.00,153.000000,,2013-01-12 02:53:00,
2013-01-11 17:02:00,75.0,63.0,-100.00,SE,126,8.0,11.0,66,0.00,,,0.00,153.000000,,2013-01-12 03:02:00,
2013-01-11 17:12:00,75.0,63.0,-100.00,SE,126,8.0,11.0,66,0.00,,,0.00,153.000000,,2013-01-12 03:12:00,
2013-01-11 17:22:00,75.0,63.0,-100.00,SE,126,8.0,11.0,66,0.00,,,0.00,153.000000,,2013-01-12 03:22:00,
2013-01-11 17:32:00,75.0,63.0,-100.00,SE,126,8.0,11.0,66,0.00,,,0.00,153.000000,,2013-01-12 03:32:00,
2013-01-11 17:53:00,75.0,58.0,-100.00,ENE,69,14.0,22.0,56,0.00,,,0.00,174.000000,,2013-01-12 03:53:00,
2013-01-11 18:02:00,75.0,58.0,-100.00,ENE,69,14.0,22.0,56,0.00,,,0.00,174.000000,,2013-01-12 04:02:00,
2013-01-11 18:12:00,75.0,58.0,-100.00,ENE,69,14.0,22.0,56,0.00,,,0.00,174.000000,,2013-01-12 04:12:00,
2013-01-11 18:22:00,75.0,58.0,-100.00,ENE,69,14.0,22.0,56,0.00,,,0.00,174.000000,,2013-01-12 04:22:00,
2013-01-11 18:32:00,75.0,58.0,-100.00,ENE,69,14.0,22.0,56,0.00,,,0.00,174.000000,,2013-01-12 04:32:00,
2013-01-11 19:03:00,70.0,58.0,-100.00,ENE,74,18.0,28.0,65,0.00,,,0.00,9.000000,,2013-01-12 05:03:00,
2013-01-11 19:12:00,70.0,58.0,-100.00,ENE,74,18.0,28.0,65,0.00,,,0.00,9.000000,,2013-01-12 05:12:00,
2013-01-11 19:22:00,70.0,58.0,-100.00,ENE,74,18.0,28.0,65,0.00,,,0.00,9.000000,,2013-01-12 05:22:00,
2013-01-11 19:32:00,70.0,58.0,-100.00,ENE,74,18.0,28.0,65,0.00,,,0.00,9.000000,,2013-01-12 05:32:00,
2013-01-11 20:02:00,70.0,57.0,-100.00,East,98,10.0,24.0,64,0.00,,,0.00,1.000000,,2013-01-12 06:02:00,
2013-01-11 20:12:00,70.0,57.0,-100.00,East,98,10.0,24.0,64,0.00,,,0.00,1.000000,,2013-01-12 06:12:00,
2013-01-11 20:22:00,70.0,57.0,-100.00,East,98,10.0,24.0,64,0.00,,,0.00,1.000000,,2013-01-12 06:22:00,
2013-01-11 20:32:00,70.0,57.0,-100.00,East,98,10.0,24.0,64,0.00,,,0.00,1.000000,,2013-01-12 06:32:00,
2013-01-11 21:02:00,71.0,57.0,-100.00,East,90,12.0,17.0,62,0.00,,,0.00,1.000000,,2013-01-12 07:02:00,
2013-01-11 21:12:00,71.0,57.0,-100.00,East,90,12.0,17.0,62,0.00,,,0.00,1.000000,,2013-01-12 07:12:00,
2013-01-11 21:22:00,71.0,57.0,-100.00,East,90,12.0,17.0,62,0.00,,,0.00,1.000000,,2013-01-12 07:22:00,
2013-01-11 21:32:00,71.0,57.0,-100.00,East,90,12.0,17.0,62,0.00,,,0.00,1.000000,,2013-01-12 07:32:00,
2013-01-11 21:52:00,66.0,53.0,-100.00,East,81,8.0,14.0,63,0.00,,,0.00,1.000000,,2013-01-12 07:52:00,
2013-01-11 22:02:00,66.0,53.0,-100.00,East,81,8.0,14.0,63,0.00,,,0.00,1.000000,,2013-01-12 08:02:00,
2013-01-11 22:11:00,66.0,53.0,-100.00,East,81,8.0,14.0,63,0.00,,,0.00,1.000000,,2013-01-12 08:11:00,
2013-01-11 22:22:00,66.0,53.0,-100.00,East,81,8.0,14.0,63,0.00,,,0.00,1.000000,,2013-01-12 08:22:00,
2013-01-11 22:32:00,66.0,53.0,-100.00,East,81,8.0,14.0,63,0.00,,,0.00,1.000000,,2013-01-12 08:32:00,
2013-01-11 22:52:00,66.0,56.0,-100.00,ESE,118,7.0,10.0,69,0.00,,,0.00,1.000000,,2013-01-12 08:52:00,
2013-01-11 23:02:00,66.0,56.0,-100.00,ESE,118,7.0,10.0,69,0.00,,,0.00,1.000000,,2013-01-12 09:02:00,
2013-01-11 23:12:00,66.0,56.0,-100.00,ESE,118,7.0,10.0,69,0.00,,,0.00,1.000000,,2013-01-12 09:12:00,
2013-01-11 23:22:00,66.0,56.0,-100.00,ESE,118,7.0,10.0,69,0.00,,,0.00,1.000000,,2013-01-12 09:22:00,
2013-01-11 23:32:00,66.0,56.0,-100.00,ESE,118,7.0,10.0,69,0.00,,,0.00,1.000000,,2013-01-12 09:32:00,